Glencove, Washington
Current Conditions -  °F | °C
As of 8:53 PM on Thursday 30 Oct 2014 (Local Time) from KTIW Reporting Station
Light Rain Light Rain  
Wind Chill: 54°   Ceiling: 3000
Heat Index: 54°   Visibility: 10mi
Dew Point: 52°   Wind: 7mph
Humidity: 93%   Direction: 200°SSW
Pressure: 29.78"   Gusts: NA
Location:  47.2986°N, 122.616°W
Report Text: KTIW 310353Z AUTO 20006KT 10SM -RA OVC030 12/11 A2978 RMK AO2 SLP085 P0001 T01220111
Loading
Personal Weather Stations






























Interactive Weather Map
Tropical Storm Tracking
New forecast layout! Learn more

10-Day Weather Forecast

Advertisements
Track Severe Weather on mobile